createdAt,value
2018-03-31T00:00:03.446Z,998.59
2018-03-31T00:01:03.384Z,998.61
2018-03-31T00:02:03.285Z,998.59
2018-03-31T00:03:03.196Z,998.56
2018-03-31T00:04:03.121Z,998.54
2018-03-31T00:05:03.035Z,998.51
2018-03-31T00:06:02.948Z,998.47
2018-03-31T00:07:02.872Z,998.41
2018-03-31T00:08:02.787Z,998.33
2018-03-31T00:09:02.710Z,998.25
2018-03-31T00:10:02.625Z,998.30
2018-03-31T00:11:02.536Z,998.28
2018-03-31T00:12:02.461Z,998.26
2018-03-31T00:13:02.372Z,998.22
2018-03-31T00:14:02.285Z,998.18
2018-03-31T00:15:02.211Z,998.16
2018-03-31T00:16:02.137Z,998.10
2018-03-31T00:17:02.036Z,998.04
2018-03-31T00:18:01.963Z,998.01
2018-03-31T00:19:01.874Z,998.04
2018-03-31T00:20:01.798Z,998.02
2018-03-31T00:21:01.713Z,998.03
2018-03-31T00:22:01.624Z,998.00
2018-03-31T00:23:01.549Z,998.04
2018-03-31T00:24:01.462Z,997.95
2018-03-31T00:25:01.373Z,997.96
2018-03-31T00:26:01.298Z,997.97
2018-03-31T00:27:01.213Z,997.98
2018-03-31T00:28:01.124Z,998.00
2018-03-31T00:29:01.049Z,998.03
2018-03-31T00:30:00.962Z,998.01
2018-03-31T00:31:00.875Z,998.04
2018-03-31T00:32:00.799Z,998.02
2018-03-31T00:33:00.718Z,998.05
2018-03-31T00:34:00.625Z,998.04
2018-03-31T00:35:00.551Z,998.03
2018-03-31T00:36:00.464Z,998.10
2018-03-31T00:37:00.388Z,998.08
2018-03-31T00:38:00.300Z,998.04
2018-03-31T00:39:00.216Z,998.01
2018-03-31T00:40:00.129Z,997.99
2018-03-31T00:41:00.053Z,997.95
2018-03-31T00:41:59.964Z,997.96
2018-03-31T00:42:59.893Z,997.95
2018-03-31T00:43:59.804Z,997.92
2018-03-31T00:44:59.714Z,997.86
2018-03-31T00:45:59.640Z,997.84
2018-03-31T00:46:59.551Z,997.87
2018-03-31T00:47:59.464Z,997.82
2018-03-31T00:48:59.389Z,997.81
2018-03-31T00:49:59.314Z,997.81
2018-03-31T00:50:59.221Z,997.72
2018-03-31T00:51:59.142Z,997.85
2018-03-31T00:52:59.052Z,997.75
2018-03-31T00:53:58.965Z,997.71
2018-03-31T00:54:58.890Z,997.75
2018-03-31T00:55:58.801Z,997.70
2018-03-31T00:56:58.715Z,997.75
2018-03-31T00:57:58.647Z,997.74
2018-03-31T00:58:58.552Z,997.75
2018-03-31T00:59:58.466Z,997.72
2018-03-31T01:00:58.392Z,997.76
2018-03-31T01:01:58.302Z,997.80
2018-03-31T01:02:58.216Z,997.81
2018-03-31T01:03:58.141Z,997.85
2018-03-31T01:04:58.053Z,997.79
2018-03-31T01:05:57.967Z,997.78
2018-03-31T01:06:57.891Z,997.74
2018-03-31T01:07:57.804Z,997.72
2018-03-31T01:08:57.716Z,997.74
2018-03-31T01:09:57.642Z,997.73
2018-03-31T01:10:57.601Z,997.77
2018-03-31T01:11:57.467Z,997.63
2018-03-31T01:12:57.392Z,997.76
2018-03-31T01:13:57.304Z,997.65
2018-03-31T01:14:57.218Z,997.64
2018-03-31T01:15:57.150Z,997.62
2018-03-31T01:16:57.056Z,997.63
2018-03-31T01:17:56.968Z,997.68
2018-03-31T01:18:56.893Z,997.66
2018-03-31T01:19:56.813Z,997.65
2018-03-31T01:20:56.718Z,997.73
2018-03-31T01:21:56.643Z,997.70
2018-03-31T01:22:56.556Z,997.69
2018-03-31T01:23:56.471Z,997.69
2018-03-31T01:24:56.393Z,997.71
2018-03-31T01:25:56.305Z,997.69
2018-03-31T01:26:56.219Z,997.69
2018-03-31T01:27:56.144Z,997.66
2018-03-31T01:28:56.069Z,997.66
2018-03-31T01:29:55.970Z,997.56
2018-03-31T01:30:55.895Z,997.55
2018-03-31T01:31:55.819Z,997.61
2018-03-31T01:32:55.720Z,997.46
2018-03-31T01:33:55.637Z,997.45
2018-03-31T01:34:55.556Z,997.45
2018-03-31T01:35:55.471Z,997.48
2018-03-31T01:36:55.383Z,997.51
2018-03-31T01:37:55.307Z,997.48
2018-03-31T01:38:55.221Z,997.56
2018-03-31T01:39:55.133Z,997.54
2018-03-31T01:40:55.058Z,997.53
2018-03-31T01:41:54.970Z,997.57
2018-03-31T01:42:54.882Z,997.57
2018-03-31T01:43:54.807Z,997.62
2018-03-31T01:44:54.724Z,997.61
2018-03-31T01:45:54.645Z,997.61
2018-03-31T01:46:54.558Z,997.68
2018-03-31T01:47:54.473Z,997.62
2018-03-31T01:48:54.384Z,997.64
2018-03-31T01:49:54.308Z,997.65
2018-03-31T01:50:54.222Z,997.57
2018-03-31T01:51:54.134Z,997.58
2018-03-31T01:52:54.059Z,997.60
2018-03-31T01:53:53.972Z,997.58
2018-03-31T01:54:53.884Z,997.53
2018-03-31T01:55:53.809Z,997.57
2018-03-31T01:56:53.723Z,997.53
2018-03-31T01:57:53.634Z,997.48
2018-03-31T01:58:53.548Z,997.49
2018-03-31T01:59:53.474Z,997.44
2018-03-31T02:00:53.384Z,997.45
2018-03-31T02:01:53.309Z,997.35
2018-03-31T02:02:53.223Z,997.47
2018-03-31T02:03:53.137Z,997.41
2018-03-31T02:04:53.047Z,997.38
2018-03-31T02:05:52.973Z,997.39
2018-03-31T02:06:52.885Z,997.41
2018-03-31T02:07:52.811Z,997.43
2018-03-31T02:08:52.723Z,997.34
2018-03-31T02:09:52.648Z,997.32
2018-03-31T02:10:52.549Z,997.31
2018-03-31T02:11:52.461Z,997.36
2018-03-31T02:12:52.386Z,997.32
2018-03-31T02:13:52.299Z,997.35
2018-03-31T02:14:52.211Z,997.24
2018-03-31T02:15:52.148Z,997.28
2018-03-31T02:16:52.050Z,997.26
2018-03-31T02:17:51.961Z,997.14
2018-03-31T02:18:51.886Z,997.11
2018-03-31T02:19:51.799Z,997.13
2018-03-31T02:20:51.713Z,997.14
2018-03-31T02:21:51.649Z,997.10
2018-03-31T02:22:51.550Z,997.04
2018-03-31T02:23:51.462Z,997.02
2018-03-31T02:24:51.375Z,997.00
2018-03-31T02:25:51.301Z,997.03
2018-03-31T02:26:51.212Z,997.00
2018-03-31T02:27:51.126Z,996.98
2018-03-31T02:28:51.051Z,996.92
2018-03-31T02:29:50.981Z,996.91
2018-03-31T02:30:50.881Z,996.92
2018-03-31T02:31:50.801Z,996.97
2018-03-31T02:32:50.713Z,996.90
2018-03-31T02:33:50.627Z,996.97
2018-03-31T02:34:50.550Z,996.84
2018-03-31T02:35:50.463Z,996.89
2018-03-31T02:36:50.377Z,996.81
2018-03-31T02:37:50.289Z,996.83
2018-03-31T02:38:50.214Z,996.77
2018-03-31T02:39:50.127Z,996.85
2018-03-31T02:40:50.040Z,996.87
2018-03-31T02:41:49.966Z,996.86
2018-03-31T02:42:49.878Z,996.94
2018-03-31T02:43:49.803Z,996.92
2018-03-31T02:44:49.703Z,997.04
2018-03-31T02:45:49.634Z,997.00
2018-03-31T02:46:49.540Z,996.93
2018-03-31T02:47:49.454Z,996.81
2018-03-31T02:48:49.378Z,996.80
2018-03-31T02:49:49.304Z,996.80
2018-03-31T02:50:49.202Z,996.72
2018-03-31T02:51:49.116Z,996.72
2018-03-31T02:52:49.041Z,996.70
2018-03-31T02:53:48.955Z,996.68
2018-03-31T02:54:48.865Z,996.68
2018-03-31T02:55:48.805Z,996.66
2018-03-31T02:56:48.705Z,996.69
2018-03-31T02:57:48.622Z,996.64
2018-03-31T02:58:48.542Z,996.66
2018-03-31T02:59:48.455Z,996.57
2018-03-31T03:00:48.370Z,996.55
2018-03-31T03:01:48.280Z,996.58
2018-03-31T03:02:48.205Z,996.54
2018-03-31T03:03:48.116Z,996.51
2018-03-31T03:04:48.031Z,996.55
2018-03-31T03:05:47.947Z,996.57
2018-03-31T03:06:47.867Z,996.58
2018-03-31T03:07:47.781Z,996.60
2018-03-31T03:08:47.693Z,996.61
2018-03-31T03:09:47.617Z,996.55
2018-03-31T03:10:47.531Z,996.48
2018-03-31T03:11:47.443Z,996.40
2018-03-31T03:12:47.367Z,996.42
2018-03-31T03:13:47.281Z,996.41
2018-03-31T03:14:47.196Z,996.35
2018-03-31T03:15:47.108Z,996.33
2018-03-31T03:16:47.033Z,996.36
2018-03-31T03:17:46.943Z,996.39
2018-03-31T03:18:46.857Z,996.39
2018-03-31T03:19:46.770Z,996.23
2018-03-31T03:20:46.696Z,996.25
2018-03-31T03:21:46.607Z,996.15
2018-03-31T03:22:46.519Z,996.13
2018-03-31T03:23:46.444Z,996.15
2018-03-31T03:24:46.357Z,996.25
2018-03-31T03:25:46.269Z,996.23
2018-03-31T03:26:46.194Z,996.18
2018-03-31T03:27:46.107Z,996.14
2018-03-31T03:28:46.033Z,996.15
2018-03-31T03:29:45.932Z,996.16
2018-03-31T03:30:45.866Z,996.19
2018-03-31T03:31:45.770Z,996.20
2018-03-31T03:32:45.695Z,996.11
2018-03-31T03:33:45.595Z,996.16
2018-03-31T03:34:45.534Z,996.13
2018-03-31T03:35:45.433Z,996.17
2018-03-31T03:36:45.345Z,996.22
2018-03-31T03:37:45.270Z,996.23
2018-03-31T03:38:45.186Z,996.21
2018-03-31T03:39:45.095Z,996.26
2018-03-31T03:40:45.012Z,996.24
2018-03-31T03:41:44.933Z,996.27
2018-03-31T03:42:44.846Z,996.26
2018-03-31T03:43:44.760Z,996.21
2018-03-31T03:44:44.685Z,996.16
2018-03-31T03:45:44.597Z,996.18
2018-03-31T03:46:44.511Z,996.19
2018-03-31T03:47:44.435Z,996.22
2018-03-31T03:48:44.347Z,996.24
2018-03-31T03:49:44.260Z,996.20
2018-03-31T03:50:44.172Z,996.25
2018-03-31T03:51:44.097Z,996.29
2018-03-31T03:52:44.010Z,996.26
2018-03-31T03:53:43.935Z,996.26
2018-03-31T03:54:43.836Z,996.27
2018-03-31T03:55:43.761Z,996.25
2018-03-31T03:56:43.674Z,996.26
2018-03-31T03:57:43.598Z,996.28
2018-03-31T03:58:43.511Z,996.25
2018-03-31T03:59:43.435Z,996.23
2018-03-31T04:00:43.336Z,996.24
2018-03-31T04:01:43.248Z,996.21
2018-03-31T04:02:43.173Z,996.23
2018-03-31T04:03:43.086Z,996.23
2018-03-31T04:04:42.998Z,996.28
2018-03-31T04:05:42.923Z,996.23
2018-03-31T04:06:42.836Z,996.25
2018-03-31T04:07:42.749Z,996.26
2018-03-31T04:08:42.674Z,996.30
2018-03-31T04:09:42.587Z,996.23
2018-03-31T04:10:42.499Z,996.21
2018-03-31T04:11:42.412Z,996.13
2018-03-31T04:12:42.338Z,996.20
2018-03-31T04:13:42.249Z,996.12
2018-03-31T04:14:42.164Z,996.09
2018-03-31T04:15:42.087Z,995.97
2018-03-31T04:16:42.000Z,996.00
2018-03-31T04:17:41.913Z,996.02
2018-03-31T04:18:41.826Z,995.96
2018-03-31T04:19:41.752Z,995.98
2018-03-31T04:20:41.663Z,995.92
2018-03-31T04:21:41.579Z,996.01
2018-03-31T04:22:41.501Z,995.99
2018-03-31T04:23:41.413Z,995.98
2018-03-31T04:24:41.339Z,995.99
2018-03-31T04:25:41.239Z,995.93
2018-03-31T04:26:41.164Z,995.99
2018-03-31T04:27:41.089Z,995.90
2018-03-31T04:28:40.990Z,995.89
2018-03-31T04:29:40.914Z,995.92
2018-03-31T04:30:40.829Z,995.86
2018-03-31T04:31:40.740Z,995.83
2018-03-31T04:32:40.665Z,995.95
2018-03-31T04:33:40.576Z,995.96
2018-03-31T04:34:40.502Z,995.87
2018-03-31T04:35:40.403Z,995.82
2018-03-31T04:36:40.343Z,995.95
2018-03-31T04:37:40.241Z,995.91
2018-03-31T04:38:40.153Z,995.94
2018-03-31T04:39:40.077Z,995.91
2018-03-31T04:40:39.991Z,995.87
2018-03-31T04:41:39.904Z,995.91
2018-03-31T04:42:39.841Z,995.92
2018-03-31T04:43:39.741Z,995.94
2018-03-31T04:44:39.652Z,995.96
2018-03-31T04:45:39.566Z,995.95
2018-03-31T04:46:39.491Z,995.94
2018-03-31T04:47:39.406Z,995.91
2018-03-31T04:48:39.316Z,995.96
2018-03-31T04:49:39.244Z,995.90
2018-03-31T04:50:39.157Z,995.89
2018-03-31T04:51:39.067Z,995.88
2018-03-31T04:52:38.980Z,995.90
2018-03-31T04:53:38.904Z,995.94
2018-03-31T04:54:38.818Z,995.91
2018-03-31T04:55:38.744Z,995.91
2018-03-31T04:56:38.654Z,995.94
2018-03-31T04:57:38.567Z,995.91
2018-03-31T04:58:38.482Z,995.94
2018-03-31T04:59:38.405Z,995.94
2018-03-31T05:00:38.318Z,995.94
2018-03-31T05:01:38.230Z,995.87
2018-03-31T05:02:38.143Z,995.84
2018-03-31T05:03:38.069Z,995.87
2018-03-31T05:04:37.979Z,995.84
2018-03-31T05:05:37.894Z,995.84
2018-03-31T05:06:37.819Z,995.83
2018-03-31T05:07:37.730Z,995.82
2018-03-31T05:08:37.646Z,995.79
2018-03-31T05:09:37.569Z,995.76
2018-03-31T05:10:37.484Z,995.82
2018-03-31T05:11:37.394Z,995.81
2018-03-31T05:12:37.320Z,995.84
2018-03-31T05:13:37.231Z,995.83
2018-03-31T05:14:37.145Z,995.89
2018-03-31T05:15:37.057Z,995.90
2018-03-31T05:16:36.981Z,995.94
2018-03-31T05:17:36.894Z,995.89
2018-03-31T05:18:36.807Z,995.87
2018-03-31T05:19:36.731Z,995.91
2018-03-31T05:20:36.646Z,995.94
2018-03-31T05:21:36.556Z,995.93
2018-03-31T05:22:36.482Z,995.92
2018-03-31T05:23:36.396Z,995.98
2018-03-31T05:24:36.307Z,995.94
2018-03-31T05:25:36.221Z,995.95
2018-03-31T05:26:36.146Z,995.96
2018-03-31T05:27:36.071Z,996.03
2018-03-31T05:28:35.970Z,995.98
2018-03-31T05:29:35.896Z,995.91
2018-03-31T05:30:35.808Z,995.93
2018-03-31T05:31:35.721Z,995.95
2018-03-31T05:32:35.648Z,995.94
2018-03-31T05:33:35.558Z,995.95
2018-03-31T05:34:35.471Z,995.95
2018-03-31T05:35:35.396Z,995.90
2018-03-31T05:36:35.308Z,995.88
2018-03-31T05:37:35.222Z,995.85
2018-03-31T05:38:35.147Z,995.86
2018-03-31T05:39:35.059Z,995.86
2018-03-31T05:40:34.972Z,995.85
2018-03-31T05:41:34.888Z,995.85
2018-03-31T05:42:34.811Z,995.81
2018-03-31T05:43:34.722Z,995.81
2018-03-31T05:44:34.653Z,995.79
2018-03-31T05:45:34.559Z,995.78
2018-03-31T05:46:34.473Z,995.78
2018-03-31T05:47:34.398Z,995.74
2018-03-31T05:48:34.310Z,995.64
2018-03-31T05:49:34.229Z,995.61
2018-03-31T05:50:34.137Z,995.61
2018-03-31T05:51:34.065Z,995.61
2018-03-31T05:52:33.972Z,995.60
2018-03-31T05:53:33.886Z,995.62
2018-03-31T05:54:33.810Z,995.57
2018-03-31T05:55:33.723Z,995.54
2018-03-31T05:56:33.636Z,995.58
2018-03-31T05:57:33.561Z,995.54
2018-03-31T05:58:33.474Z,995.55
2018-03-31T05:59:33.387Z,995.59
2018-03-31T06:00:33.311Z,995.47
2018-03-31T06:01:33.229Z,995.52
2018-03-31T06:02:33.138Z,995.51
2018-03-31T06:03:33.090Z,995.45
2018-03-31T06:04:32.976Z,995.46
2018-03-31T06:05:32.886Z,995.50
2018-03-31T06:06:32.806Z,995.42
2018-03-31T06:07:32.726Z,995.36
2018-03-31T06:08:32.637Z,995.43
2018-03-31T06:09:32.551Z,995.37
2018-03-31T06:10:32.476Z,995.36
2018-03-31T06:11:32.389Z,995.41
2018-03-31T06:12:32.302Z,995.32
2018-03-31T06:13:32.225Z,995.38
2018-03-31T06:14:32.137Z,995.32
2018-03-31T06:15:32.051Z,995.30
2018-03-31T06:16:31.976Z,995.30
2018-03-31T06:17:31.889Z,995.30
2018-03-31T06:18:31.802Z,995.23
2018-03-31T06:19:31.726Z,995.18
2018-03-31T06:20:31.638Z,995.15
2018-03-31T06:21:31.552Z,995.21
2018-03-31T06:22:31.464Z,995.12
2018-03-31T06:23:31.392Z,995.07
2018-03-31T06:24:31.301Z,995.07
2018-03-31T06:25:31.214Z,995.04
2018-03-31T06:26:31.139Z,995.10
2018-03-31T06:27:31.052Z,995.08
2018-03-31T06:28:30.965Z,994.97
2018-03-31T06:29:30.889Z,995.02
2018-03-31T06:30:30.831Z,994.96
2018-03-31T06:31:30.716Z,994.96
2018-03-31T06:32:30.639Z,994.95
2018-03-31T06:33:30.556Z,994.97
2018-03-31T06:34:30.465Z,994.95
2018-03-31T06:35:30.391Z,994.95
2018-03-31T06:36:30.303Z,994.95
2018-03-31T06:37:30.217Z,995.00
2018-03-31T06:38:30.142Z,995.02
2018-03-31T06:39:30.054Z,995.01
2018-03-31T06:40:29.966Z,995.01
2018-03-31T06:41:29.890Z,995.07
2018-03-31T06:42:29.804Z,995.03
2018-03-31T06:43:29.716Z,995.05
2018-03-31T06:44:29.641Z,995.06
2018-03-31T06:45:29.554Z,995.02
2018-03-31T06:46:29.475Z,994.99
2018-03-31T06:47:29.394Z,994.99
2018-03-31T06:48:29.304Z,994.99
2018-03-31T06:49:29.229Z,994.97
2018-03-31T06:50:29.130Z,994.98
2018-03-31T06:51:29.054Z,995.07
2018-03-31T06:52:28.967Z,995.04
2018-03-31T06:53:28.891Z,995.07
2018-03-31T06:54:28.805Z,995.08
2018-03-31T06:55:28.730Z,995.04
2018-03-31T06:56:28.631Z,995.07
2018-03-31T06:57:28.555Z,995.12
2018-03-31T06:58:28.467Z,995.08
2018-03-31T06:59:28.407Z,995.05
2018-03-31T07:00:28.306Z,995.05
2018-03-31T07:01:28.230Z,995.03
2018-03-31T07:02:28.133Z,995.01
2018-03-31T07:03:28.044Z,994.93
2018-03-31T07:04:27.968Z,994.91
2018-03-31T07:05:27.884Z,994.94
2018-03-31T07:06:27.794Z,994.93
2018-03-31T07:07:27.731Z,994.90
2018-03-31T07:08:27.632Z,994.95
2018-03-31T07:09:27.543Z,994.97
2018-03-31T07:10:27.469Z,994.99
2018-03-31T07:11:27.382Z,994.95
2018-03-31T07:12:27.294Z,994.92
2018-03-31T07:13:27.212Z,994.92
2018-03-31T07:14:27.132Z,994.95
2018-03-31T07:15:27.090Z,994.92
2018-03-31T07:16:26.958Z,994.86
2018-03-31T07:17:26.882Z,994.91
2018-03-31T07:18:26.794Z,994.90
2018-03-31T07:19:26.708Z,994.83
2018-03-31T07:20:26.639Z,994.83
2018-03-31T07:21:26.545Z,994.84
2018-03-31T07:22:26.458Z,994.86
2018-03-31T07:23:26.372Z,994.80
2018-03-31T07:24:26.296Z,994.85
2018-03-31T07:25:26.208Z,994.83
2018-03-31T07:26:26.121Z,994.88
2018-03-31T07:27:26.048Z,994.77
2018-03-31T07:28:25.960Z,994.80
2018-03-31T07:29:25.871Z,994.82
2018-03-31T07:30:25.785Z,994.74
2018-03-31T07:31:25.710Z,994.75
2018-03-31T07:32:25.621Z,994.73
2018-03-31T07:33:25.534Z,994.72
2018-03-31T07:34:25.472Z,994.72
2018-03-31T07:35:25.373Z,994.67
2018-03-31T07:36:25.285Z,994.72
2018-03-31T07:37:25.210Z,994.63
2018-03-31T07:38:25.121Z,994.69
2018-03-31T07:39:25.048Z,994.68
2018-03-31T07:40:24.954Z,994.64
2018-03-31T07:41:24.875Z,994.64
2018-03-31T07:42:24.785Z,994.62
2018-03-31T07:43:24.698Z,994.64
2018-03-31T07:44:24.622Z,994.69
2018-03-31T07:45:24.536Z,994.62
2018-03-31T07:46:24.447Z,994.66
2018-03-31T07:47:24.375Z,994.65
2018-03-31T07:48:24.286Z,994.69
2018-03-31T07:49:24.215Z,994.69
2018-03-31T07:50:24.123Z,994.71
2018-03-31T07:51:24.036Z,994.70
2018-03-31T07:52:23.948Z,994.69
2018-03-31T07:53:23.862Z,994.70
2018-03-31T07:54:23.786Z,994.70
2018-03-31T07:55:23.702Z,994.65
2018-03-31T07:56:23.612Z,994.67
2018-03-31T07:57:23.538Z,994.66
2018-03-31T07:58:23.448Z,994.63
2018-03-31T07:59:23.362Z,994.62
2018-03-31T08:00:23.287Z,994.65
2018-03-31T08:01:23.200Z,994.58
2018-03-31T08:02:23.112Z,994.59
2018-03-31T08:03:23.026Z,994.63
2018-03-31T08:04:22.949Z,994.58
2018-03-31T08:05:22.863Z,994.59
2018-03-31T08:06:22.775Z,994.66
2018-03-31T08:07:22.702Z,994.58
2018-03-31T08:08:22.613Z,994.57
2018-03-31T08:09:22.526Z,994.51
2018-03-31T08:10:22.451Z,994.53
2018-03-31T08:11:22.364Z,994.50
2018-03-31T08:12:22.277Z,994.41
2018-03-31T08:13:22.214Z,994.48
2018-03-31T08:14:22.114Z,994.39
2018-03-31T08:15:22.026Z,994.43
2018-03-31T08:16:21.950Z,994.35
2018-03-31T08:17:21.865Z,994.39
2018-03-31T08:18:21.776Z,994.35
2018-03-31T08:19:21.714Z,994.37
2018-03-31T08:20:21.650Z,994.32
2018-03-31T08:21:21.527Z,994.27
2018-03-31T08:22:21.445Z,994.36
2018-03-31T08:23:21.366Z,994.29
2018-03-31T08:24:21.277Z,994.31
2018-03-31T08:25:21.190Z,994.28
2018-03-31T08:26:21.116Z,994.26
2018-03-31T08:27:21.027Z,994.27
2018-03-31T08:28:20.954Z,994.21
2018-03-31T08:29:20.866Z,994.26
2018-03-31T08:30:20.813Z,994.21
2018-03-31T08:31:20.693Z,994.26
2018-03-31T08:32:20.615Z,994.28
2018-03-31T08:33:20.528Z,994.27
2018-03-31T08:34:20.494Z,994.20
2018-03-31T08:35:20.366Z,994.24
2018-03-31T08:36:20.278Z,994.18
2018-03-31T08:37:20.192Z,994.19
2018-03-31T08:38:20.121Z,994.16
2018-03-31T08:39:20.029Z,994.16
2018-03-31T08:40:19.942Z,994.13
2018-03-31T08:41:19.872Z,994.13
2018-03-31T08:42:19.781Z,994.10
2018-03-31T08:43:19.692Z,994.08
2018-03-31T08:44:19.620Z,994.12
2018-03-31T08:45:19.529Z,994.15
2018-03-31T08:46:19.442Z,994.17
2018-03-31T08:47:19.367Z,994.10
2018-03-31T08:48:19.279Z,994.11
2018-03-31T08:49:19.193Z,994.09
2018-03-31T08:50:19.118Z,994.07
2018-03-31T08:51:19.031Z,994.13
2018-03-31T08:52:18.945Z,994.12
2018-03-31T08:53:18.869Z,994.10
2018-03-31T08:54:18.780Z,994.12
2018-03-31T08:55:18.693Z,994.18
2018-03-31T08:56:18.619Z,994.11
2018-03-31T08:57:18.531Z,994.20
2018-03-31T08:58:18.445Z,994.20
2018-03-31T08:59:18.369Z,994.20
2018-03-31T09:00:18.282Z,994.11
2018-03-31T09:01:18.205Z,994.11
2018-03-31T09:02:18.120Z,994.14
2018-03-31T09:03:18.044Z,994.10
2018-03-31T09:04:17.944Z,994.11
2018-03-31T09:05:17.870Z,994.09
2018-03-31T09:06:17.782Z,994.13
2018-03-31T09:07:17.696Z,994.09
2018-03-31T09:08:17.620Z,994.08
2018-03-31T09:09:17.580Z,994.02
2018-03-31T09:10:17.445Z,994.05
2018-03-31T09:11:17.370Z,994.03
2018-03-31T09:12:17.282Z,994.08
2018-03-31T09:13:17.197Z,993.95
2018-03-31T09:14:17.122Z,993.94
2018-03-31T09:15:17.045Z,993.93
2018-03-31T09:16:16.946Z,993.94
2018-03-31T09:17:16.870Z,993.91
2018-03-31T09:18:16.783Z,993.96
2018-03-31T09:19:16.707Z,993.90
2018-03-31T09:20:16.630Z,993.86
2018-03-31T09:21:16.545Z,993.95
2018-03-31T09:22:16.446Z,993.89
2018-03-31T09:23:16.375Z,993.78
2018-03-31T09:24:16.283Z,993.82
2018-03-31T09:25:16.208Z,993.81
2018-03-31T09:26:16.122Z,993.80
2018-03-31T09:27:16.049Z,993.83
2018-03-31T09:28:15.947Z,993.79
2018-03-31T09:29:15.871Z,993.80
2018-03-31T09:30:15.784Z,993.83
2018-03-31T09:31:15.697Z,993.84
2018-03-31T09:32:15.623Z,993.80
2018-03-31T09:33:15.535Z,993.84
2018-03-31T09:34:15.448Z,993.84
2018-03-31T09:35:15.373Z,993.79
2018-03-31T09:36:15.285Z,993.81
2018-03-31T09:37:15.210Z,993.85
2018-03-31T09:38:15.129Z,993.71
2018-03-31T09:39:15.041Z,993.74
2018-03-31T09:40:14.960Z,993.74
2018-03-31T09:41:14.874Z,993.74
2018-03-31T09:42:14.798Z,993.68
2018-03-31T09:43:14.710Z,993.69
2018-03-31T09:44:14.624Z,993.75
2018-03-31T09:45:14.540Z,993.70
2018-03-31T09:46:14.460Z,993.59
2018-03-31T09:47:14.373Z,993.63
2018-03-31T09:48:14.298Z,993.58
2018-03-31T09:49:14.210Z,993.50
2018-03-31T09:50:14.136Z,993.43
2018-03-31T09:51:14.050Z,993.44
2018-03-31T09:52:13.961Z,993.36
2018-03-31T09:53:13.887Z,993.39
2018-03-31T09:54:13.800Z,993.41
2018-03-31T09:55:13.712Z,993.34
2018-03-31T09:56:13.637Z,993.32
2018-03-31T09:57:13.550Z,993.33
2018-03-31T09:58:13.478Z,993.30
2018-03-31T09:59:13.387Z,993.47
2018-03-31T10:00:13.305Z,993.34
2018-03-31T10:01:13.283Z,993.24
2018-03-31T10:02:13.137Z,993.26
2018-03-31T10:03:13.062Z,993.23
2018-03-31T10:04:12.975Z,993.20
2018-03-31T10:05:12.889Z,993.24
2018-03-31T10:06:12.813Z,993.34
2018-03-31T10:07:12.728Z,993.40
2018-03-31T10:08:12.652Z,993.39
2018-03-31T10:09:12.563Z,993.44
2018-03-31T10:10:12.482Z,993.44
2018-03-31T10:11:12.404Z,993.53
2018-03-31T10:12:12.314Z,993.55
2018-03-31T10:13:12.239Z,993.59
2018-03-31T10:14:12.152Z,993.55
2018-03-31T10:15:12.069Z,993.58
2018-03-31T10:16:11.990Z,993.62
2018-03-31T10:17:11.902Z,993.59
2018-03-31T10:18:11.828Z,993.57
2018-03-31T10:19:11.739Z,993.64
2018-03-31T10:20:11.653Z,993.62
2018-03-31T10:21:11.578Z,993.67
2018-03-31T10:22:11.503Z,993.65
2018-03-31T10:23:11.403Z,993.70
2018-03-31T10:24:11.330Z,993.63
2018-03-31T10:25:11.240Z,993.65
2018-03-31T10:26:11.168Z,993.65
2018-03-31T10:27:11.079Z,993.65
2018-03-31T10:28:10.992Z,993.71
2018-03-31T10:29:10.960Z,993.72
2018-03-31T10:30:10.830Z,993.73
2018-03-31T10:31:10.743Z,993.73
2018-03-31T10:32:10.665Z,993.74
2018-03-31T10:33:10.579Z,993.81
2018-03-31T10:34:10.507Z,993.76
2018-03-31T10:35:10.477Z,993.70
2018-03-31T10:36:10.334Z,993.73
2018-03-31T10:37:10.256Z,993.75
2018-03-31T10:38:10.174Z,993.69
2018-03-31T10:39:10.081Z,993.71
2018-03-31T10:40:10.004Z,993.60
2018-03-31T10:41:09.917Z,993.63
2018-03-31T10:42:09.842Z,993.65
2018-03-31T10:43:09.772Z,993.66
2018-03-31T10:44:09.667Z,993.61
2018-03-31T10:45:09.606Z,993.60
2018-03-31T10:46:09.505Z,993.63
2018-03-31T10:47:09.432Z,993.55
2018-03-31T10:48:09.343Z,993.59
2018-03-31T10:49:09.256Z,993.57
2018-03-31T10:50:09.181Z,993.59
2018-03-31T10:51:09.106Z,993.56
2018-03-31T10:52:09.007Z,993.60
2018-03-31T10:53:08.943Z,993.56
2018-03-31T10:54:08.843Z,993.54
2018-03-31T10:55:08.772Z,993.56
2018-03-31T10:56:08.681Z,993.58
2018-03-31T10:57:08.606Z,993.58
2018-03-31T10:58:08.532Z,993.58
2018-03-31T10:59:08.432Z,993.61
2018-03-31T11:00:08.361Z,993.55
2018-03-31T11:01:08.269Z,993.63
2018-03-31T11:02:08.189Z,993.58
2018-03-31T11:03:08.108Z,993.57
2018-03-31T11:04:08.021Z,993.59
2018-03-31T11:05:07.945Z,993.62
2018-03-31T11:06:07.858Z,993.60
2018-03-31T11:07:07.771Z,993.61
2018-03-31T11:08:07.695Z,993.52
2018-03-31T11:09:07.608Z,993.60
2018-03-31T11:10:07.535Z,993.58
2018-03-31T11:11:07.446Z,993.52
2018-03-31T11:12:07.358Z,993.51
2018-03-31T11:13:07.284Z,993.48
2018-03-31T11:14:07.203Z,993.48
2018-03-31T11:15:07.120Z,993.50
2018-03-31T11:16:07.034Z,993.54
2018-03-31T11:17:06.946Z,993.57
2018-03-31T11:18:06.870Z,993.63
2018-03-31T11:19:06.786Z,993.66
2018-03-31T11:20:06.709Z,993.63
2018-03-31T11:21:06.626Z,993.63
2018-03-31T11:22:06.535Z,993.61
2018-03-31T11:23:06.459Z,993.60
2018-03-31T11:24:06.371Z,993.63
2018-03-31T11:25:06.297Z,993.62
2018-03-31T11:26:06.209Z,993.66
2018-03-31T11:27:06.124Z,993.66
2018-03-31T11:28:06.064Z,993.63
2018-03-31T11:29:05.962Z,993.59
2018-03-31T11:30:05.885Z,993.53
2018-03-31T11:31:05.798Z,993.50
2018-03-31T11:32:05.722Z,993.46
2018-03-31T11:33:05.636Z,993.45
2018-03-31T11:34:05.549Z,993.42
2018-03-31T11:35:05.473Z,993.41
2018-03-31T11:36:05.388Z,993.45
2018-03-31T11:37:05.299Z,993.45
2018-03-31T11:38:05.222Z,993.46
2018-03-31T11:39:05.136Z,993.43
2018-03-31T11:40:05.062Z,993.40
2018-03-31T11:41:04.977Z,993.43
2018-03-31T11:42:04.898Z,993.43
2018-03-31T11:43:04.812Z,993.50
2018-03-31T11:44:04.723Z,993.39
2018-03-31T11:45:04.663Z,993.38
2018-03-31T11:46:04.562Z,993.37
2018-03-31T11:47:04.487Z,993.27
2018-03-31T11:48:04.399Z,993.23
2018-03-31T11:49:04.324Z,993.25
2018-03-31T11:50:04.238Z,993.21
2018-03-31T11:51:04.162Z,993.21
2018-03-31T11:52:04.075Z,993.24
2018-03-31T11:53:03.989Z,993.29
2018-03-31T11:54:03.900Z,993.30
2018-03-31T11:55:03.826Z,993.27
2018-03-31T11:56:03.738Z,993.25
2018-03-31T11:57:03.665Z,993.25
2018-03-31T11:58:03.589Z,993.23
2018-03-31T11:59:03.489Z,993.16
2018-03-31T12:00:03.414Z,993.19
2018-03-31T12:01:03.326Z,993.22
2018-03-31T12:02:03.264Z,993.21
2018-03-31T12:03:03.164Z,993.21
2018-03-31T12:04:03.089Z,993.14
2018-03-31T12:05:03.001Z,993.16
2018-03-31T12:06:02.926Z,993.11
2018-03-31T12:07:02.840Z,993.08
2018-03-31T12:08:02.753Z,993.08
2018-03-31T12:09:02.677Z,993.05
2018-03-31T12:10:02.590Z,993.12
2018-03-31T12:11:02.520Z,993.15
2018-03-31T12:12:02.427Z,993.18
2018-03-31T12:13:02.341Z,993.29
2018-03-31T12:14:02.266Z,993.27
2018-03-31T12:15:02.179Z,993.25
2018-03-31T12:16:02.105Z,993.21
2018-03-31T12:17:02.016Z,993.16
2018-03-31T12:18:01.929Z,993.07
2018-03-31T12:19:01.853Z,993.09
2018-03-31T12:20:01.766Z,993.03
2018-03-31T12:21:01.694Z,993.02
2018-03-31T12:22:01.602Z,993.01
2018-03-31T12:23:01.530Z,992.96
2018-03-31T12:24:01.441Z,993.07
2018-03-31T12:25:01.366Z,993.00
2018-03-31T12:26:01.279Z,993.04
2018-03-31T12:27:01.192Z,993.03